Time;durP1;ratioP1;P1;durP2;ratioP2;P2;SDS_P1;SDS_P2;PMS_P1;PMS_P2;Temp;Humidity;BMP_temperature;BMP_pressure;BME280_temperature;BME280_humidity;BME280_pressure;Samples;Min_cycle;Max_cycle;Signal;HPM_P1;HPM_P2
2021/07/26 00:01:52;;;;;;;;;;;18.10;99.90;;;;;;5098364;28;19931;-58
2021/07/26 00:04:41;;;;;;;;;;;18.10;99.90;;;;;;5100109;28;19924;-58
2021/07/26 00:07:30;;;;;;;;;;;18.10;99.90;;;;;;5096747;28;19931;-58
2021/07/26 00:10:18;;;;;;;;;;;18.10;99.90;;;;;;5101210;28;20073;-59
2021/07/26 00:13:07;;;;;;;;;;;18.10;99.90;;;;;;5098992;28;19924;-58
2021/07/26 00:15:57;;;;;;;;;;;18.00;99.90;;;;;;5093331;28;19962;-58
2021/07/26 00:19:11;;;;;;;;;;;18.00;99.90;;;;;;5094623;28;19928;-58
2021/07/26 00:21:59;;;;;;;;;;;18.00;99.90;;;;;;5101688;28;20384;-59
2021/07/26 00:24:48;;;;;;;;;;;18.00;99.90;;;;;;5093950;28;19924;-58
2021/07/26 00:27:36;;;;;;;;;;;17.90;99.90;;;;;;5094977;28;19931;-59
2021/07/26 00:30:25;;;;;;;;;;;17.90;99.90;;;;;;5094794;28;19924;-59
2021/07/26 00:33:56;;;;;;;;;;;17.80;99.90;;;;;;5097579;28;20352;-63
2021/07/26 00:36:57;;;;;;;;;;;17.80;99.90;;;;;;5089082;28;19924;-58
2021/07/26 00:39:45;;;;;;;;;;;17.70;99.90;;;;;;5096113;28;19928;-58
2021/07/26 00:42:36;;;;;;;;;;;17.80;99.90;;;;;;5096379;28;21544;-58
2021/07/26 00:45:24;;;;;;;;;;;17.70;99.90;;;;;;5090632;28;19923;-58
2021/07/26 00:48:13;;;;;;;;;;;17.70;99.90;;;;;;5095263;28;19924;-58
2021/07/26 00:51:02;;;;;;;;;;;17.70;99.90;;;;;;5093412;28;19924;-60
2021/07/26 00:53:53;;;;;;;;;;;17.60;99.90;;;;;;5096106;28;19947;-57
2021/07/26 00:56:42;;;;;;;;;;;17.60;99.90;;;;;;5096307;28;19931;-57
2021/07/26 00:59:32;;;;;;;;;;;17.60;99.90;;;;;;5096929;28;20379;-57
2021/07/26 01:02:20;;;;;;;;;;;17.60;99.90;;;;;;5091364;28;19935;-57
2021/07/26 01:05:10;;;;;;;;;;;17.50;99.90;;;;;;5093408;28;19924;-57
2021/07/26 01:07:59;;;;;;;;;;;17.50;99.90;;;;;;5096956;28;20306;-57
2021/07/26 01:10:48;;;;;;;;;;;17.40;99.90;;;;;;5092777;28;20411;-58
2021/07/26 01:13:37;;;;;;;;;;;17.40;99.90;;;;;;5096491;28;19927;-57
2021/07/26 01:16:27;;;;;;;;;;;17.30;99.90;;;;;;5087687;28;20014;-57
2021/07/26 01:19:17;;;;;;;;;;;17.30;99.90;;;;;;5092360;28;20445;-57
2021/07/26 01:22:07;;;;;;;;;;;17.20;99.90;;;;;;5095509;28;20024;-57
2021/07/26 01:24:56;;;;;;;;;;;17.20;99.90;;;;;;5099437;28;19924;-57
2021/07/26 01:27:44;;;;;;;;;;;17.20;99.90;;;;;;5094559;28;19924;-58
2021/07/26 01:30:33;;;;;;;;;;;17.20;99.90;;;;;;5102426;28;19924;-58
2021/07/26 01:33:22;;;;;;;;;;;17.20;99.90;;;;;;5099464;28;19931;-58
2021/07/26 01:36:11;;;;;;;;;;;17.20;99.90;;;;;;5091982;28;19924;-61
2021/07/26 01:39:01;;;;;;;;;;;17.10;99.90;;;;;;5091907;28;20372;-57
2021/07/26 01:41:54;;;;;;;;;;;17.20;99.90;;;;;;5101002;28;20022;-57
2021/07/26 01:44:42;;;;;;;;;;;17.20;99.90;;;;;;5106056;28;19935;-58
2021/07/26 01:47:34;;;;;;;;;;;17.20;99.90;;;;;;5102709;28;19969;-58
2021/07/26 01:50:22;;;;;;;;;;;17.30;99.90;;;;;;5108650;28;19931;-58
2021/07/26 01:53:11;;;;;;;;;;;17.30;99.90;;;;;;5107477;28;19923;-58
2021/07/26 01:56:01;;;;;;;;;;;17.40;99.90;;;;;;5106496;28;19924;-58
2021/07/26 01:58:50;;;;;;;;;;;17.30;99.90;;;;;;5106892;28;19931;-58
2021/07/26 02:01:39;;;;;;;;;;;17.40;99.90;;;;;;5101402;28;20016;-58
2021/07/26 02:04:28;;;;;;;;;;;17.30;99.90;;;;;;5103144;28;19932;-58
2021/07/26 02:07:16;;;;;;;;;;;17.30;99.90;;;;;;5095384;28;20014;-58
2021/07/26 02:10:05;;;;;;;;;;;17.40;99.90;;;;;;5110978;28;19981;-58
2021/07/26 02:12:57;;;;;;;;;;;17.30;99.90;;;;;;5103330;28;19924;-58
2021/07/26 02:15:46;;;;;;;;;;;17.30;99.90;;;;;;5094744;28;20023;-58
2021/07/26 02:18:34;;;;;;;;;;;17.30;99.90;;;;;;5104675;28;20014;-57
2021/07/26 02:21:49;;;;;;;;;;;17.30;99.90;;;;;;5109014;28;19924;-59
2021/07/26 02:24:40;;;;;;;;;;;17.30;99.90;;;;;;5104520;28;19977;-58
2021/07/26 02:27:28;;;;;;;;;;;17.20;99.90;;;;;;5109091;28;19932;-58
2021/07/26 02:30:18;;;;;;;;;;;17.20;99.90;;;;;;5104822;28;20378;-58
2021/07/26 02:33:07;;;;;;;;;;;17.10;99.90;;;;;;5105012;28;20338;-58
2021/07/26 02:35:55;;;;;;;;;;;17.10;99.90;;;;;;5098434;28;19924;-58
2021/07/26 02:38:44;;;;;;;;;;;17.10;99.90;;;;;;5097580;28;19950;-58
2021/07/26 02:41:32;;;;;;;;;;;17.00;99.90;;;;;;5099743;28;19930;-59
2021/07/26 02:44:20;;;;;;;;;;;17.10;99.90;;;;;;5099156;28;19932;-59
2021/07/26 02:47:10;;;;;;;;;;;17.10;99.90;;;;;;5095842;28;19928;-58
2021/07/26 02:49:59;;;;;;;;;;;17.10;99.90;;;;;;5102080;28;19924;-58
2021/07/26 02:52:48;;;;;;;;;;;17.00;99.90;;;;;;5103012;28;19928;-58
2021/07/26 02:55:39;;;;;;;;;;;17.00;99.90;;;;;;5098187;28;20368;-58
2021/07/26 02:58:29;;;;;;;;;;;16.90;99.90;;;;;;5102108;28;19924;-58
2021/07/26 03:01:18;;;;;;;;;;;16.80;99.90;;;;;;5103841;28;19931;-58
2021/07/26 03:04:10;;;;;;;;;;;16.80;99.90;;;;;;5107997;28;20367;-58
2021/07/26 03:06:59;;;;;;;;;;;16.80;99.90;;;;;;5105435;28;19923;-58
2021/07/26 03:09:47;;;;;;;;;;;16.70;99.90;;;;;;5091375;28;20419;-58
2021/07/26 03:12:36;;;;;;;;;;;16.70;99.90;;;;;;5111340;28;20031;-58
2021/07/26 03:15:25;;;;;;;;;;;16.70;99.90;;;;;;5107898;28;19989;-59
2021/07/26 03:18:13;;;;;;;;;;;16.60;99.90;;;;;;5109236;28;19928;-59
2021/07/26 03:21:04;;;;;;;;;;;16.60;99.90;;;;;;5099049;28;19935;-59
2021/07/26 03:23:53;;;;;;;;;;;16.60;99.90;;;;;;5097106;28;20345;-60
2021/07/26 03:26:41;;;;;;;;;;;16.50;99.90;;;;;;5098172;28;20267;-60
2021/07/26 03:29:30;;;;;;;;;;;16.50;99.90;;;;;;5095411;28;19932;-60
2021/07/26 03:32:19;;;;;;;;;;;16.50;99.90;;;;;;5092666;28;19938;-59
2021/07/26 03:35:09;;;;;;;;;;;16.40;99.90;;;;;;5103242;28;19924;-60
2021/07/26 03:37:59;;;;;;;;;;;16.40;99.90;;;;;;5096627;28;20033;-59
2021/07/26 03:40:48;;;;;;;;;;;16.40;99.90;;;;;;5097673;28;20453;-59
2021/07/26 03:43:36;;;;;;;;;;;16.30;99.90;;;;;;5097695;28;19924;-59
2021/07/26 03:46:25;;;;;;;;;;;16.30;99.90;;;;;;5091715;28;20248;-60
2021/07/26 03:49:13;;;;;;;;;;;16.50;99.90;;;;;;5096786;28;19996;-60
2021/07/26 03:52:02;;;;;;;;;;;16.50;99.90;;;;;;5096477;28;19934;-60
2021/07/26 03:54:54;;;;;;;;;;;16.50;99.90;;;;;;5096478;28;19938;-59
2021/07/26 03:57:43;;;;;;;;;;;16.50;99.90;;;;;;5095544;28;19935;-59
2021/07/26 04:00:37;;;;;;;;;;;16.50;99.90;;;;;;5091624;28;19924;-59
2021/07/26 04:03:30;;;;;;;;;;;16.40;99.90;;;;;;5092031;28;19947;-59
2021/07/26 04:06:20;;;;;;;;;;;16.50;99.90;;;;;;5096480;28;19961;-62
2021/07/26 04:09:09;;;;;;;;;;;16.50;99.90;;;;;;5093033;28;19924;-59
2021/07/26 04:12:02;;;;;;;;;;;16.50;99.90;;;;;;5094827;28;19935;-58
2021/07/26 04:14:51;;;;;;;;;;;16.60;99.90;;;;;;5098406;28;19932;-59
2021/07/26 04:17:39;;;;;;;;;;;16.60;99.90;;;;;;5095685;28;20026;-59
2021/07/26 04:20:53;;;;;;;;;;;16.70;99.90;;;;;;5109323;28;20260;-59
2021/07/26 04:23:41;;;;;;;;;;;16.80;99.90;;;;;;5116002;28;19936;-59
2021/07/26 04:26:30;;;;;;;;;;;16.90;99.90;;;;;;5104867;28;20425;-59
2021/07/26 04:29:20;;;;;;;;;;;17.00;99.90;;;;;;5098131;28;19935;-59
2021/07/26 04:32:10;;;;;;;;;;;17.20;99.90;;;;;;5102910;28;19924;-58
2021/07/26 04:35:00;;;;;;;;;;;17.30;99.90;;;;;;5092802;28;19924;-59
2021/07/26 04:37:49;;;;;;;;;;;17.30;99.90;;;;;;5107633;28;19944;-59
2021/07/26 04:40:37;;;;;;;;;;;17.30;99.90;;;;;;5108560;28;20299;-58
2021/07/26 04:43:25;;;;;;;;;;;17.30;99.90;;;;;;5092423;28;20018;-58
2021/07/26 04:46:15;;;;;;;;;;;17.30;99.90;;;;;;5100476;28;19923;-58
2021/07/26 04:52:16;;;;;;;;;;;17.40;99.90;;;;;;5092966;28;19928;-59
2021/07/26 04:55:05;;;;;;;;;;;17.60;99.90;;;;;;5107049;28;20287;-58
2021/07/26 04:57:54;;;;;;;;;;;17.60;99.90;;;;;;5111162;28;19945;-59
2021/07/26 05:00:42;;;;;;;;;;;17.70;99.90;;;;;;5097983;28;19927;-58
2021/07/26 05:03:32;;;;;;;;;;;17.80;99.90;;;;;;5104885;28;19923;-58
2021/07/26 05:06:21;;;;;;;;;;;17.70;99.90;;;;;;5093935;28;19932;-58
2021/07/26 05:09:09;;;;;;;;;;;17.80;99.90;;;;;;5096811;28;19928;-58
2021/07/26 05:12:00;;;;;;;;;;;17.80;99.90;;;;;;5103464;28;19923;-59
2021/07/26 05:14:52;;;;;;;;;;;17.80;99.90;;;;;;5106563;28;19993;-59
2021/07/26 05:17:40;;;;;;;;;;;17.80;99.90;;;;;;5093706;28;19925;-59
2021/07/26 05:23:42;;;;;;;;;;;18.30;99.90;;;;;;5104791;28;20526;-58
2021/07/26 05:26:32;;;;;;;;;;;18.40;99.90;;;;;;5103226;28;19924;-59
2021/07/26 05:29:21;;;;;;;;;;;18.30;99.90;;;;;;5108601;28;19928;-59
2021/07/26 05:32:10;;;;;;;;;;;18.30;99.90;;;;;;5101703;28;19928;-59
2021/07/26 05:34:58;;;;;;;;;;;18.30;99.90;;;;;;5109701;28;19975;-58
2021/07/26 05:37:48;;;;;;;;;;;18.60;99.90;;;;;;5104790;28;19930;-59
2021/07/26 05:40:37;;;;;;;;;;;19.10;99.90;;;;;;5104129;28;19987;-59
2021/07/26 05:43:25;;;;;;;;;;;19.40;99.90;;;;;;5113017;28;19924;-59
2021/07/26 05:46:14;;;;;;;;;;;19.40;99.90;;;;;;5110470;28;19943;-59
2021/07/26 05:49:03;;;;;;;;;;;19.80;99.90;;;;;;5114301;28;20680;-60
2021/07/26 05:51:52;;;;;;;;;;;20.20;99.90;;;;;;5123864;28;19934;-59
2021/07/26 05:54:41;;;;;;;;;;;20.20;99.90;;;;;;5116510;28;20054;-59
2021/07/26 05:57:34;;;;;;;;;;;20.50;99.90;;;;;;5115273;28;19924;-59
2021/07/26 06:00:35;;;;;;;;;;;21.00;99.90;;;;;;5110907;28;19932;-59
2021/07/26 06:03:27;;;;;;;;;;;21.30;99.90;;;;;;5113074;28;19923;-59
2021/07/26 06:06:15;;;;;;;;;;;20.70;99.90;;;;;;5114008;28;19978;-59
2021/07/26 06:09:29;;;;;;;;;;;20.20;99.90;;;;;;5115897;28;20403;-59
2021/07/26 06:12:19;;;;;;;;;;;20.70;99.90;;;;;;5113430;28;19970;-59
2021/07/26 06:15:08;;;;;;;;;;;21.30;99.90;;;;;;5108319;28;19931;-58
2021/07/26 06:17:57;;;;;;;;;;;21.90;99.90;;;;;;5109271;27;19924;-59
2021/07/26 06:20:45;;;;;;;;;;;22.40;99.90;;;;;;5110514;28;19928;-60
2021/07/26 06:23:34;;;;;;;;;;;22.60;99.90;;;;;;5113576;28;19924;-59
2021/07/26 06:26:23;;;;;;;;;;;21.80;99.90;;;;;;5104897;28;20506;-59
2021/07/26 06:29:13;;;;;;;;;;;21.20;99.90;;;;;;5110015;28;19931;-59
2021/07/26 06:32:03;;;;;;;;;;;21.50;99.90;;;;;;5102646;27;19924;-59
2021/07/26 06:34:52;;;;;;;;;;;21.40;99.90;;;;;;5113841;28;19930;-62
2021/07/26 06:37:41;;;;;;;;;;;22.10;99.90;;;;;;5112576;28;19967;-60
2021/07/26 06:40:30;;;;;;;;;;;22.20;99.90;;;;;;5113795;28;19932;-59
2021/07/26 06:43:18;;;;;;;;;;;22.70;99.90;;;;;;5111649;28;19931;-58
2021/07/26 06:46:08;;;;;;;;;;;22.30;99.90;;;;;;5110260;27;19930;-58
2021/07/26 06:48:57;;;;;;;;;;;21.90;99.90;;;;;;5112519;28;20286;-58
2021/07/26 06:51:45;;;;;;;;;;;21.80;99.90;;;;;;5111254;28;19924;-58
2021/07/26 06:54:33;;;;;;;;;;;21.50;99.90;;;;;;5114736;28;20391;-59
2021/07/26 06:57:22;;;;;;;;;;;21.20;99.90;;;;;;5106221;28;19923;-59
2021/07/26 07:00:11;;;;;;;;;;;21.60;99.90;;;;;;5107403;28;19930;-58
2021/07/26 07:03:01;;;;;;;;;;;21.50;99.90;;;;;;5102730;28;20321;-59
2021/07/26 07:05:49;;;;;;;;;;;21.90;99.90;;;;;;5111025;28;19923;-58
2021/07/26 07:08:39;;;;;;;;;;;22.30;99.90;;;;;;5110056;28;19930;-58
2021/07/26 07:14:40;;;;;;;;;;;22.40;99.90;;;;;;5107986;28;20241;-59
2021/07/26 07:17:29;;;;;;;;;;;22.60;99.90;;;;;;5115015;27;19994;-60
2021/07/26 07:20:23;;;;;;;;;;;23.00;99.90;;;;;;5118685;28;19927;-59
2021/07/26 07:23:36;;;;;;;;;;;22.40;99.90;;;;;;5108689;28;19924;-61
2021/07/26 07:26:25;;;;;;;;;;;22.70;99.90;;;;;;5108630;28;20375;-60
2021/07/26 07:29:15;;;;;;;;;;;22.70;99.90;;;;;;5107402;28;20387;-60
2021/07/26 07:32:04;;;;;;;;;;;22.40;99.90;;;;;;5099624;28;19939;-59
2021/07/26 07:34:53;;;;;;;;;;;22.10;99.90;;;;;;5111356;28;20001;-59
2021/07/26 07:37:44;;;;;;;;;;;22.30;99.90;;;;;;5104821;28;20387;-59
2021/07/26 07:40:33;;;;;;;;;;;22.50;99.90;;;;;;5109589;28;19924;-59
2021/07/26 07:43:21;;;;;;;;;;;22.00;99.90;;;;;;5109728;28;19928;-59
2021/07/26 07:46:10;;;;;;;;;;;21.70;99.90;;;;;;5104091;28;19924;-59
2021/07/26 07:48:59;;;;;;;;;;;21.60;99.90;;;;;;5111078;28;20261;-61
2021/07/26 07:51:48;;;;;;;;;;;21.50;99.90;;;;;;5110942;28;19930;-59
2021/07/26 07:54:38;;;;;;;;;;;21.60;99.90;;;;;;5111290;28;19924;-59
2021/07/26 07:57:29;;;;;;;;;;;21.90;99.90;;;;;;5109226;28;19931;-58
2021/07/26 08:00:17;;;;;;;;;;;22.30;99.90;;;;;;5102152;28;19931;-59
2021/07/26 08:03:06;;;;;;;;;;;22.30;99.90;;;;;;5102328;28;19928;-59
2021/07/26 08:05:59;;;;;;;;;;;21.90;99.90;;;;;;5105145;28;20364;-59
2021/07/26 08:08:48;;;;;;;;;;;21.80;99.90;;;;;;5102621;28;20011;-59
2021/07/26 08:11:38;;;;;;;;;;;21.90;99.90;;;;;;5107461;28;20344;-59
2021/07/26 08:14:27;;;;;;;;;;;21.80;99.90;;;;;;5104376;28;20028;-59
2021/07/26 08:17:16;;;;;;;;;;;21.60;99.90;;;;;;5103630;28;20271;-60
2021/07/26 08:20:05;;;;;;;;;;;21.40;99.90;;;;;;5101906;28;19961;-58
2021/07/26 08:22:54;;;;;;;;;;;21.50;99.90;;;;;;5107088;28;19924;-62
2021/07/26 08:25:43;;;;;;;;;;;21.50;99.90;;;;;;5105873;28;20279;-60
2021/07/26 08:28:33;;;;;;;;;;;21.20;99.90;;;;;;5109462;28;19930;-59
2021/07/26 08:31:22;;;;;;;;;;;21.20;99.90;;;;;;5104610;28;20275;-59
2021/07/26 08:34:39;;;;;;;;;;;21.00;99.90;;;;;;5106459;28;20009;-59
2021/07/26 08:37:28;;;;;;;;;;;21.20;99.90;;;;;;5110664;28;19934;-59
2021/07/26 08:40:19;;;;;;;;;;;21.30;99.90;;;;;;5108742;28;20386;-60
2021/07/26 08:43:10;;;;;;;;;;;21.40;99.90;;;;;;5103119;28;20061;-59
2021/07/26 08:46:00;;;;;;;;;;;21.30;99.90;;;;;;5101399;28;19934;-59
2021/07/26 08:48:50;;;;;;;;;;;21.00;99.90;;;;;;5110379;28;20472;-60
2021/07/26 08:51:42;;;;;;;;;;;20.90;99.90;;;;;;5106716;28;20279;-59
2021/07/26 08:54:31;;;;;;;;;;;20.80;99.90;;;;;;5110495;28;19931;-59
2021/07/26 08:57:19;;;;;;;;;;;20.80;99.90;;;;;;5107094;28;20003;-60
2021/07/26 09:00:08;;;;;;;;;;;20.70;99.90;;;;;;5089309;28;19924;-59
2021/07/26 09:03:12;;;;;;;;;;;20.60;99.90;;;;;;5106165;28;19931;-60
2021/07/26 09:06:01;;;;;;;;;;;20.60;99.90;;;;;;5109424;28;20382;-60
2021/07/26 09:08:50;;;;;;;;;;;20.70;99.90;;;;;;5106726;28;19924;-59
2021/07/26 09:14:55;;;;;;;;;;;20.60;99.90;;;;;;5096892;28;19928;-60
2021/07/26 09:18:09;;;;;;;;;;;20.50;99.90;;;;;;5093645;28;19928;-59
2021/07/26 09:21:00;;;;;;;;;;;20.60;99.90;;;;;;5093626;28;19930;-59
2021/07/26 09:24:05;;;;;;;;;;;20.50;99.90;;;;;;5106859;28;19973;-60
2021/07/26 09:26:54;;;;;;;;;;;20.60;99.90;;;;;;5104978;28;19924;-59
2021/07/26 09:29:42;;;;;;;;;;;20.70;99.90;;;;;;5109119;28;19939;-59
2021/07/26 09:32:37;;;;;;;;;;;20.90;99.90;;;;;;5107543;28;19955;-59
2021/07/26 09:35:26;;;;;;;;;;;20.90;99.90;;;;;;5107722;28;19927;-62
2021/07/26 09:38:24;;;;;;;;;;;21.00;99.90;;;;;;5104700;28;19932;-59
2021/07/26 09:41:13;;;;;;;;;;;21.20;99.90;;;;;;5107821;28;20030;-59
2021/07/26 09:44:04;;;;;;;;;;;21.10;99.90;;;;;;5104943;28;19928;-59
2021/07/26 09:46:54;;;;;;;;;;;20.90;99.90;;;;;;5098943;28;19924;-59
2021/07/26 09:49:43;;;;;;;;;;;20.70;99.90;;;;;;5104713;28;19934;-59
2021/07/26 09:52:31;;;;;;;;;;;20.70;99.90;;;;;;5101479;28;19924;-59
2021/07/26 09:55:30;;;;;;;;;;;20.70;99.90;;;;;;5105382;28;19930;-59
2021/07/26 09:58:35;;;;;;;;;;;20.50;99.90;;;;;;5106283;28;19923;-59
2021/07/26 10:01:24;;;;;;;;;;;20.50;99.90;;;;;;5099819;28;19927;-59
2021/07/26 10:04:13;;;;;;;;;;;20.50;99.90;;;;;;5106002;28;19924;-59
2021/07/26 10:07:02;;;;;;;;;;;20.40;99.90;;;;;;5113190;28;19923;-58
2021/07/26 10:09:50;;;;;;;;;;;20.30;99.90;;;;;;5120691;28;19931;-59
2021/07/26 10:12:41;;;;;;;;;;;20.30;99.90;;;;;;5103918;28;19931;-59
2021/07/26 10:15:30;;;;;;;;;;;20.30;99.90;;;;;;5100955;28;19923;-61
2021/07/26 10:18:20;;;;;;;;;;;20.20;99.90;;;;;;5107269;28;19989;-59
2021/07/26 10:21:08;;;;;;;;;;;20.30;99.90;;;;;;5108795;28;20369;-59
2021/07/26 10:24:00;;;;;;;;;;;20.30;99.90;;;;;;5108026;28;20390;-59
2021/07/26 10:26:49;;;;;;;;;;;20.40;99.90;;;;;;5089387;28;19924;-61
2021/07/26 10:29:52;;;;;;;;;;;20.50;99.90;;;;;;5057870;28;20359;-60
2021/07/26 10:32:41;;;;;;;;;;;20.50;99.90;;;;;;5088722;28;20275;-60
2021/07/26 10:35:37;;;;;;;;;;;20.50;99.90;;;;;;5088035;28;19932;-61
2021/07/26 10:38:49;;;;;;;;;;;20.70;99.90;;;;;;5094763;28;19924;-60
2021/07/26 10:41:57;;;;;;;;;;;20.90;99.90;;;;;;5082297;28;20008;-60
2021/07/26 10:44:48;;;;;;;;;;;20.90;99.90;;;;;;5088185;28;19993;-60
2021/07/26 10:47:38;;;;;;;;;;;21.00;99.90;;;;;;5088589;28;19932;-60
2021/07/26 10:50:34;;;;;;;;;;;20.90;99.90;;;;;;5090188;28;20479;-61
2021/07/26 10:53:41;;;;;;;;;;;21.00;99.90;;;;;;5090029;28;19928;-61
2021/07/26 10:56:29;;;;;;;;;;;21.30;99.90;;;;;;5091996;28;19939;-61
2021/07/26 10:59:17;;;;;;;;;;;21.20;99.90;;;;;;5088667;28;20076;-60
2021/07/26 11:02:06;;;;;;;;;;;21.00;99.90;;;;;;5087451;28;19947;-61
2021/07/26 11:04:57;;;;;;;;;;;21.00;99.90;;;;;;5090983;28;19924;-62
2021/07/26 11:07:46;;;;;;;;;;;21.10;99.90;;;;;;5088546;28;19935;-61
2021/07/26 11:10:45;;;;;;;;;;;21.30;99.90;;;;;;5087167;28;19928;-61
2021/07/26 11:13:49;;;;;;;;;;;21.40;99.90;;;;;;5091229;28;19932;-61
2021/07/26 11:16:58;;;;;;;;;;;21.50;99.90;;;;;;5082080;28;19929;-61
2021/07/26 11:19:58;;;;;;;;;;;21.70;99.90;;;;;;5089444;28;19931;-62
2021/07/26 11:23:00;;;;;;;;;;;21.90;99.90;;;;;;5086130;28;20168;-61
2021/07/26 11:25:49;;;;;;;;;;;21.90;99.90;;;;;;5087317;28;19932;-60
2021/07/26 11:28:38;;;;;;;;;;;21.80;99.90;;;;;;5086999;28;20032;-61
2021/07/26 11:31:34;;;;;;;;;;;21.60;99.90;;;;;;5078403;28;19992;-60
2021/07/26 11:34:24;;;;;;;;;;;21.80;99.90;;;;;;5088757;28;19925;-61
2021/07/26 11:37:14;;;;;;;;;;;22.10;99.90;;;;;;5086018;28;19924;-61
2021/07/26 11:40:06;;;;;;;;;;;22.20;99.90;;;;;;5085504;28;19931;-61
2021/07/26 11:42:54;;;;;;;;;;;22.40;99.90;;;;;;5087114;28;19943;-60
2021/07/26 11:45:47;;;;;;;;;;;22.40;99.90;;;;;;5082909;28;19931;-59
2021/07/26 11:49:00;;;;;;;;;;;22.50;99.90;;;;;;5086927;28;19931;-60
2021/07/26 11:51:49;;;;;;;;;;;22.50;99.90;;;;;;5085300;28;20042;-60
2021/07/26 11:54:38;;;;;;;;;;;22.50;99.90;;;;;;5086536;28;19951;-62
2021/07/26 11:57:29;;;;;;;;;;;22.80;99.90;;;;;;5090390;28;19936;-60
2021/07/26 12:00:24;;;;;;;;;;;22.90;99.90;;;;;;5088310;28;20397;-60
2021/07/26 12:03:14;;;;;;;;;;;23.10;99.90;;;;;;5087022;28;19928;-60
2021/07/26 12:06:03;;;;;;;;;;;23.90;99.90;;;;;;5087073;28;19924;-60
2021/07/26 12:08:51;;;;;;;;;;;23.50;99.90;;;;;;5089677;28;19924;-60
2021/07/26 12:11:40;;;;;;;;;;;23.20;99.90;;;;;;5086014;28;19924;-60
2021/07/26 12:14:31;;;;;;;;;;;23.10;99.90;;;;;;5091177;28;19932;-59
2021/07/26 12:17:24;;;;;;;;;;;23.10;99.90;;;;;;5089659;28;19969;-60
2021/07/26 12:20:21;;;;;;;;;;;23.70;99.90;;;;;;5085428;28;19924;-60
2021/07/26 12:23:13;;;;;;;;;;;23.90;99.90;;;;;;5089676;28;20260;-60
2021/07/26 12:26:07;;;;;;;;;;;23.40;99.90;;;;;;5090157;28;19931;-60
2021/07/26 12:28:58;;;;;;;;;;;23.30;99.90;;;;;;5092483;28;19924;-59
2021/07/26 12:32:03;;;;;;;;;;;23.30;99.90;;;;;;5085580;28;19931;-60
2021/07/26 12:35:11;;;;;;;;;;;23.30;99.90;;;;;;5085195;28;19947;-60
2021/07/26 12:38:03;;;;;;;;;;;23.70;99.90;;;;;;5088458;28;19935;-60
2021/07/26 12:41:17;;;;;;;;;;;23.70;99.90;;;;;;5085236;28;20120;-60
2021/07/26 12:44:12;;;;;;;;;;;23.70;99.90;;;;;;5084881;28;20502;-60
2021/07/26 12:47:02;;;;;;;;;;;24.10;99.90;;;;;;5078803;28;19969;-59
2021/07/26 12:49:51;;;;;;;;;;;24.70;99.90;;;;;;5090544;28;20275;-63
2021/07/26 12:52:39;;;;;;;;;;;24.50;99.90;;;;;;5084259;28;19929;-60
2021/07/26 12:55:27;;;;;;;;;;;24.20;99.90;;;;;;5084358;28;20011;-60
2021/07/26 12:58:17;;;;;;;;;;;24.30;99.90;;;;;;5082957;28;19935;-60
2021/07/26 13:01:11;;;;;;;;;;;24.50;99.90;;;;;;5091938;28;19924;-60
2021/07/26 13:04:01;;;;;;;;;;;25.00;99.90;;;;;;5089601;28;19928;-61
2021/07/26 13:06:50;;;;;;;;;;;25.20;99.90;;;;;;5087639;28;20010;-60
2021/07/26 13:09:38;;;;;;;;;;;25.10;99.90;;;;;;5086206;28;20406;-59
2021/07/26 13:12:27;;;;;;;;;;;25.10;99.90;;;;;;5084084;28;19924;-60
2021/07/26 13:15:17;;;;;;;;;;;24.80;99.90;;;;;;5078749;28;19924;-60
2021/07/26 13:18:06;;;;;;;;;;;24.80;99.90;;;;;;5080734;28;20244;-59
2021/07/26 13:20:56;;;;;;;;;;;24.80;99.90;;;;;;5073871;28;19924;-60
2021/07/26 13:23:45;;;;;;;;;;;24.70;99.90;;;;;;5089075;28;20045;-60
2021/07/26 13:26:58;;;;;;;;;;;24.70;99.90;;;;;;5081879;28;19947;-63
2021/07/26 13:29:47;;;;;;;;;;;24.80;99.90;;;;;;5086908;28;19932;-60
2021/07/26 13:32:44;;;;;;;;;;;25.00;99.90;;;;;;5082087;28;19938;-59
2021/07/26 13:35:33;;;;;;;;;;;25.50;99.90;;;;;;5084325;28;20004;-60
2021/07/26 13:38:22;;;;;;;;;;;25.70;99.90;;;;;;5086449;28;19925;-60
2021/07/26 13:41:11;;;;;;;;;;;26.00;99.90;;;;;;5085730;28;19924;-59
2021/07/26 13:43:59;;;;;;;;;;;25.20;99.90;;;;;;5082534;28;19928;-60
2021/07/26 13:46:48;;;;;;;;;;;24.70;99.90;;;;;;5078430;28;20402;-61
2021/07/26 13:49:37;;;;;;;;;;;24.70;99.90;;;;;;5082103;28;19959;-59
2021/07/26 13:52:26;;;;;;;;;;;24.80;99.90;;;;;;5089504;28;19924;-62
2021/07/26 13:55:16;;;;;;;;;;;24.90;99.90;;;;;;5077759;28;19924;-60
2021/07/26 13:58:04;;;;;;;;;;;25.00;99.90;;;;;;5082638;28;19928;-60
2021/07/26 14:00:54;;;;;;;;;;;25.20;99.90;;;;;;5081960;28;20019;-59
2021/07/26 14:03:45;;;;;;;;;;;25.10;99.90;;;;;;5085126;28;19977;-60
2021/07/26 14:06:34;;;;;;;;;;;25.20;99.90;;;;;;5099151;28;19931;-60
2021/07/26 14:09:22;;;;;;;;;;;25.30;99.90;;;;;;5100077;28;20099;-60
2021/07/26 14:12:15;;;;;;;;;;;25.20;99.90;;;;;;5100767;28;20271;-60
2021/07/26 14:15:05;;;;;;;;;;;25.10;99.90;;;;;;5092729;28;19939;-59
2021/07/26 14:17:53;;;;;;;;;;;25.00;99.90;;;;;;5100237;28;20265;-59
2021/07/26 14:20:46;;;;;;;;;;;25.00;99.90;;;;;;5096842;28;19953;-59
2021/07/26 14:23:34;;;;;;;;;;;25.00;99.90;;;;;;5094974;28;19977;-59
2021/07/26 14:26:24;;;;;;;;;;;25.00;99.90;;;;;;5091409;28;19928;-62
2021/07/26 14:29:14;;;;;;;;;;;25.20;99.90;;;;;;5089086;28;19924;-60
2021/07/26 14:32:03;;;;;;;;;;;25.30;99.70;;;;;;5082306;28;19924;-59
2021/07/26 14:34:52;;;;;;;;;;;25.60;99.90;;;;;;5092524;28;21036;-59
2021/07/26 14:37:41;;;;;;;;;;;25.90;98.50;;;;;;5083689;28;19924;-59
2021/07/26 14:40:30;;;;;;;;;;;26.00;98.00;;;;;;5089765;28;19936;-60
2021/07/26 14:43:19;;;;;;;;;;;25.80;98.10;;;;;;5089878;28;20012;-59
2021/07/26 14:46:09;;;;;;;;;;;25.70;98.20;;;;;;5083099;28;20356;-59
2021/07/26 14:48:59;;;;;;;;;;;25.80;99.00;;;;;;5089955;28;19928;-60
2021/07/26 14:51:48;;;;;;;;;;;25.70;98.30;;;;;;5086063;28;19924;-62
2021/07/26 14:54:36;;;;;;;;;;;25.60;98.00;;;;;;5090266;28;19924;-60
2021/07/26 14:57:25;;;;;;;;;;;25.60;98.60;;;;;;5090524;28;19931;-60
2021/07/26 15:00:14;;;;;;;;;;;25.50;99.50;;;;;;5086935;28;19934;-60
2021/07/26 15:03:05;;;;;;;;;;;25.70;99.20;;;;;;5056196;28;19963;-59
2021/07/26 15:05:55;;;;;;;;;;;25.50;98.70;;;;;;5071297;28;19950;-59
2021/07/26 15:08:43;;;;;;;;;;;25.30;99.60;;;;;;5069941;28;19925;-59
2021/07/26 15:11:37;;;;;;;;;;;25.40;99.40;;;;;;5061353;28;19947;-59
2021/07/26 15:14:25;;;;;;;;;;;25.50;99.20;;;;;;5068767;28;19924;-59
2021/07/26 15:17:18;;;;;;;;;;;25.50;99.00;;;;;;5048990;28;19924;-59
2021/07/26 15:20:08;;;;;;;;;;;25.40;99.90;;;;;;5067490;28;19928;-58
2021/07/26 15:22:57;;;;;;;;;;;25.20;99.90;;;;;;5067400;28;19925;-59
2021/07/26 15:25:46;;;;;;;;;;;25.20;99.70;;;;;;5068407;28;19924;-59
2021/07/26 15:28:36;;;;;;;;;;;25.10;99.90;;;;;;5061725;28;20066;-58
2021/07/26 15:31:25;;;;;;;;;;;25.00;99.90;;;;;;5061073;28;19946;-59
2021/07/26 15:34:14;;;;;;;;;;;24.90;99.90;;;;;;5068584;28;20463;-59
2021/07/26 15:37:04;;;;;;;;;;;24.80;99.90;;;;;;5064624;28;20411;-61
2021/07/26 15:39:52;;;;;;;;;;;24.90;99.90;;;;;;5078845;28;19928;-58
2021/07/26 15:42:41;;;;;;;;;;;24.90;99.90;;;;;;5067976;28;19939;-58
2021/07/26 15:45:30;;;;;;;;;;;24.80;99.90;;;;;;5061510;28;20888;-58
2021/07/26 15:48:19;;;;;;;;;;;24.80;99.90;;;;;;5068158;28;20027;-59
2021/07/26 15:51:10;;;;;;;;;;;24.90;99.90;;;;;;5065003;28;19943;-59
2021/07/26 15:54:00;;;;;;;;;;;24.80;99.90;;;;;;5070424;28;19971;-59
2021/07/26 15:56:49;;;;;;;;;;;24.70;99.90;;;;;;5063374;28;19931;-58
2021/07/26 15:59:37;;;;;;;;;;;24.60;99.90;;;;;;5067846;28;19924;-59
2021/07/26 16:02:26;;;;;;;;;;;24.70;99.90;;;;;;5060521;28;19925;-59
2021/07/26 16:05:17;;;;;;;;;;;24.90;99.90;;;;;;5074157;28;19924;-58
2021/07/26 16:08:09;;;;;;;;;;;25.00;99.90;;;;;;5068853;28;19925;-58
2021/07/26 16:10:59;;;;;;;;;;;25.20;99.90;;;;;;5067497;28;20117;-58
2021/07/26 16:13:47;;;;;;;;;;;25.30;99.90;;;;;;5067959;28;19924;-59
2021/07/26 16:16:36;;;;;;;;;;;25.40;99.90;;;;;;5074403;28;19996;-58
2021/07/26 16:19:25;;;;;;;;;;;25.40;99.80;;;;;;5090380;28;19943;-58
2021/07/26 16:22:13;;;;;;;;;;;25.40;99.80;;;;;;5085851;28;20089;-59
2021/07/26 16:25:02;;;;;;;;;;;25.30;99.60;;;;;;5089811;27;19928;-58
2021/07/26 16:27:52;;;;;;;;;;;25.30;99.60;;;;;;5088590;28;19924;-58
2021/07/26 16:30:41;;;;;;;;;;;25.20;99.90;;;;;;5079235;28;19925;-59
2021/07/26 16:33:30;;;;;;;;;;;25.20;99.90;;;;;;5068986;28;19925;-59
2021/07/26 16:36:18;;;;;;;;;;;25.20;99.90;;;;;;5068108;28;19928;-60
2021/07/26 16:39:07;;;;;;;;;;;25.30;99.90;;;;;;5082863;28;19971;-59
2021/07/26 16:41:55;;;;;;;;;;;25.30;99.90;;;;;;5081613;28;19928;-59
2021/07/26 16:44:45;;;;;;;;;;;25.40;99.90;;;;;;5082848;28;19928;-58
2021/07/26 16:47:36;;;;;;;;;;;25.40;99.90;;;;;;5075774;28;19931;-59